createdAt,value
2022-10-18T00:00:07.710Z,0.60
2022-10-18T00:02:39.799Z,0.70
2022-10-18T00:05:09.100Z,0.30
2022-10-18T00:07:37.774Z,1.30
2022-10-18T00:10:07.532Z,0.40
2022-10-18T00:12:36.980Z,0.68
2022-10-18T00:15:09.170Z,0.40
2022-10-18T00:17:38.771Z,0.88
2022-10-18T00:20:08.489Z,0.90
2022-10-18T00:22:38.642Z,0.70
2022-10-18T00:25:08.907Z,0.30
2022-10-18T00:27:38.152Z,0.70
2022-10-18T00:30:09.367Z,0.50
2022-10-18T00:32:38.847Z,0.77
2022-10-18T00:35:09.340Z,1.20
2022-10-18T00:37:38.193Z,0.47
2022-10-18T00:40:07.852Z,0.65
2022-10-18T00:42:38.332Z,0.52
2022-10-18T00:45:21.302Z,0.68
2022-10-18T00:47:59.248Z,0.50
2022-10-18T00:50:31.450Z,0.70
2022-10-18T00:53:03.925Z,0.75
2022-10-18T00:55:34.718Z,0.40
2022-10-18T00:58:04.711Z,0.35
2022-10-18T01:00:39.012Z,0.43
2022-10-18T01:03:09.354Z,0.35
2022-10-18T01:05:41.802Z,0.40
2022-10-18T01:08:35.024Z,0.65
2022-10-18T01:11:15.303Z,0.40
2022-10-18T01:14:02.643Z,0.50
2022-10-18T01:16:40.994Z,0.70
2022-10-18T01:19:26.780Z,0.85
2022-10-18T01:22:00.656Z,0.70
2022-10-18T01:24:47.579Z,0.22
2022-10-18T01:27:43.074Z,0.55
2022-10-18T01:30:51.189Z,0.30
2022-10-18T01:33:39.203Z,0.32
2022-10-18T01:36:15.002Z,0.40
2022-10-18T01:38:45.356Z,0.30
2022-10-18T01:41:15.949Z,0.30
2022-10-18T01:43:48.014Z,0.47
2022-10-18T01:46:20.946Z,0.40
2022-10-18T01:48:53.030Z,0.30
2022-10-18T01:51:24.367Z,1.25
2022-10-18T01:53:53.136Z,0.40
2022-10-18T01:56:32.130Z,0.52
2022-10-18T01:59:29.776Z,0.30
2022-10-18T02:02:07.934Z,0.30
2022-10-18T02:04:44.162Z,0.20
2022-10-18T02:07:25.152Z,0.40
2022-10-18T02:10:02.716Z,0.32
2022-10-18T02:12:35.170Z,0.50
2022-10-18T02:15:06.327Z,0.20
2022-10-18T02:20:08.078Z,0.20
2022-10-18T02:22:39.575Z,0.30
2022-10-18T02:25:12.561Z,0.30
2022-10-18T02:27:41.694Z,0.32
2022-10-18T02:30:12.049Z,0.28
2022-10-18T02:32:47.339Z,0.20
2022-10-18T02:35:22.349Z,0.30
2022-10-18T02:37:53.952Z,0.35
2022-10-18T02:40:22.800Z,0.30
2022-10-18T02:42:57.020Z,0.35
2022-10-18T02:45:27.535Z,0.40
2022-10-18T02:47:56.333Z,0.75
2022-10-18T02:50:26.503Z,0.20
2022-10-18T02:52:55.098Z,0.20
2022-10-18T02:55:23.765Z,0.20
2022-10-18T02:57:52.353Z,0.40
2022-10-18T03:00:21.029Z,0.20
2022-10-18T03:02:50.738Z,0.20
2022-10-18T03:05:19.353Z,0.10
2022-10-18T03:07:50.179Z,0.20
2022-10-18T03:10:21.905Z,0.30
2022-10-18T03:12:53.889Z,0.17
2022-10-18T03:15:25.926Z,0.10
2022-10-18T03:17:57.546Z,0.20
2022-10-18T03:20:30.125Z,0.10
2022-10-18T03:23:21.241Z,0.20
2022-10-18T03:25:54.086Z,0.43
2022-10-18T03:28:26.252Z,0.13
2022-10-18T03:31:04.207Z,0.20
2022-10-18T03:33:39.180Z,0.20
2022-10-18T03:36:14.119Z,0.47
2022-10-18T03:38:50.024Z,0.25
2022-10-18T03:41:25.665Z,0.10
2022-10-18T03:43:57.325Z,0.28
2022-10-18T03:46:29.023Z,0.35
2022-10-18T03:49:01.946Z,0.10
2022-10-18T03:51:38.708Z,0.10
2022-10-18T03:54:14.621Z,0.10
2022-10-18T03:56:49.685Z,0.17
2022-10-18T03:59:22.509Z,0.20
2022-10-18T04:01:53.669Z,0.30
2022-10-18T04:04:30.065Z,0.30
2022-10-18T04:07:01.904Z,0.10
2022-10-18T04:09:35.406Z,0.20
2022-10-18T04:12:07.281Z,0.10
2022-10-18T04:14:41.529Z,0.20
2022-10-18T04:17:13.526Z,0.10
2022-10-18T04:19:47.648Z,0.20
2022-10-18T04:22:22.525Z,0.10
2022-10-18T04:24:54.338Z,0.47
2022-10-18T04:27:26.262Z,0.95
2022-10-18T04:29:55.350Z,2.38
2022-10-18T04:32:24.548Z,3.55
2022-10-18T04:34:54.577Z,5.45
2022-10-18T04:37:25.117Z,8.38
2022-10-18T04:39:55.683Z,10.43
2022-10-18T04:42:24.964Z,12.35
2022-10-18T04:44:53.882Z,13.93
2022-10-18T04:47:25.543Z,15.45
2022-10-18T04:49:54.571Z,15.95
2022-10-18T04:52:23.539Z,17.00
2022-10-18T04:54:52.480Z,15.13
2022-10-18T04:57:22.900Z,15.30
2022-10-18T04:59:52.486Z,14.75
2022-10-18T05:02:21.305Z,13.63
2022-10-18T05:04:50.322Z,13.32
2022-10-18T05:07:19.161Z,11.70
2022-10-18T05:09:48.086Z,11.45
2022-10-18T05:12:16.810Z,9.80
2022-10-18T05:14:47.297Z,10.45
2022-10-18T05:17:16.369Z,7.97
2022-10-18T05:19:47.789Z,8.07
2022-10-18T05:22:19.229Z,6.80
2022-10-18T05:24:48.179Z,6.65
2022-10-18T05:27:17.371Z,6.10
2022-10-18T05:29:47.901Z,4.63
2022-10-18T05:32:17.028Z,4.63
2022-10-18T05:34:45.822Z,4.32
2022-10-18T05:37:14.791Z,4.07
2022-10-18T05:39:44.680Z,3.78
2022-10-18T05:42:13.827Z,4.53
2022-10-18T05:44:42.560Z,4.50
2022-10-18T05:47:12.833Z,4.22
2022-10-18T05:49:41.617Z,4.22
2022-10-18T05:52:10.417Z,4.32
2022-10-18T05:54:39.178Z,4.32
2022-10-18T05:57:07.978Z,4.32
2022-10-18T05:59:36.740Z,4.47
2022-10-18T06:02:05.409Z,4.30
2022-10-18T06:04:36.226Z,3.83
2022-10-18T06:07:05.079Z,3.28
2022-10-18T06:09:33.669Z,3.83
2022-10-18T06:12:02.432Z,3.53
2022-10-18T06:14:31.032Z,3.88
2022-10-18T06:16:59.716Z,3.78
2022-10-18T06:19:28.292Z,4.40
2022-10-18T06:21:58.390Z,3.90
2022-10-18T06:24:27.587Z,3.30
2022-10-18T06:26:56.362Z,2.50
2022-10-18T06:29:25.103Z,1.58
2022-10-18T06:31:53.941Z,1.20
2022-10-18T06:34:22.878Z,1.27
2022-10-18T06:36:55.003Z,1.00
2022-10-18T06:39:28.238Z,0.70
2022-10-18T06:41:56.991Z,0.82
2022-10-18T06:44:26.285Z,0.60
2022-10-18T06:46:55.043Z,0.40
2022-10-18T06:49:23.611Z,0.40
2022-10-18T06:51:52.327Z,0.40
2022-10-18T06:54:21.265Z,0.25
2022-10-18T06:56:51.379Z,0.30
2022-10-18T06:59:20.191Z,0.30
2022-10-18T07:01:48.884Z,0.20
2022-10-18T07:04:17.519Z,0.20
2022-10-18T07:06:46.248Z,0.20
2022-10-18T07:09:14.989Z,0.35
2022-10-18T07:11:43.712Z,0.30
2022-10-18T07:14:16.287Z,0.25
2022-10-18T07:16:45.348Z,0.40
2022-10-18T07:19:15.124Z,0.47
2022-10-18T07:21:43.923Z,0.38
2022-10-18T07:24:12.632Z,0.20
2022-10-18T07:26:42.660Z,0.17
2022-10-18T07:29:14.548Z,0.10
2022-10-18T07:31:43.222Z,0.20
2022-10-18T07:34:14.637Z,0.20
2022-10-18T07:36:43.555Z,0.20
2022-10-18T07:39:12.432Z,0.20
2022-10-18T07:41:41.211Z,0.17
2022-10-18T07:44:09.998Z,0.17
2022-10-18T07:46:40.675Z,0.20
2022-10-18T07:49:09.348Z,0.20
2022-10-18T07:51:38.060Z,0.22
2022-10-18T07:54:06.888Z,0.30
2022-10-18T07:56:35.703Z,0.10
2022-10-18T07:59:04.382Z,0.10
2022-10-18T08:01:33.147Z,0.10
2022-10-18T08:04:07.810Z,0.10
2022-10-18T08:06:37.969Z,0.20
2022-10-18T08:09:07.263Z,0.10
2022-10-18T08:11:35.940Z,0.10
2022-10-18T08:14:04.654Z,0.10
2022-10-18T08:19:08.472Z,0.10
2022-10-18T08:21:37.223Z,0.00
2022-10-18T08:24:06.721Z,0.00
2022-10-18T08:26:35.751Z,0.00
2022-10-18T08:29:17.923Z,0.00
2022-10-18T08:31:51.636Z,0.00
2022-10-18T08:34:24.107Z,0.00
2022-10-18T08:36:52.945Z,0.00
2022-10-18T08:39:21.914Z,0.00
2022-10-18T08:42:10.404Z,0.00
2022-10-18T08:44:46.109Z,0.00
2022-10-18T08:47:18.525Z,0.00
2022-10-18T08:49:52.011Z,0.00
2022-10-18T08:52:34.530Z,0.10
2022-10-18T08:55:05.500Z,0.00
2022-10-18T08:57:34.766Z,0.00
2022-10-18T09:00:09.582Z,0.00
2022-10-18T09:02:51.557Z,0.00
2022-10-18T09:05:29.750Z,0.00
2022-10-18T09:08:40.040Z,0.00
2022-10-18T09:11:20.095Z,0.00
2022-10-18T09:14:04.509Z,0.00
2022-10-18T09:16:41.292Z,0.00
2022-10-18T09:19:18.963Z,0.30
2022-10-18T09:21:54.060Z,0.00
2022-10-18T09:24:29.176Z,7.80
2022-10-18T09:27:02.922Z,0.10
2022-10-18T09:29:44.844Z,0.10
2022-10-18T09:32:24.692Z,0.00
2022-10-18T09:34:59.405Z,0.00
2022-10-18T09:37:33.878Z,0.10
2022-10-18T09:40:16.582Z,0.10
2022-10-18T09:42:54.816Z,0.10
2022-10-18T09:45:29.205Z,0.13
2022-10-18T09:48:08.711Z,0.10
2022-10-18T09:50:42.703Z,0.10
2022-10-18T09:53:23.132Z,0.20
2022-10-18T09:56:02.153Z,0.30
2022-10-18T09:58:43.003Z,0.17
2022-10-18T10:01:14.585Z,0.30
2022-10-18T10:03:43.986Z,0.20
2022-10-18T10:06:25.645Z,0.10
2022-10-18T10:09:06.858Z,0.28
2022-10-18T10:11:38.788Z,0.10
2022-10-18T10:14:23.792Z,0.20
2022-10-18T10:16:55.553Z,0.00
2022-10-18T10:19:33.753Z,0.05
2022-10-18T10:22:07.246Z,0.10
2022-10-18T10:24:53.050Z,0.10
2022-10-18T10:27:26.494Z,0.00
2022-10-18T10:30:01.561Z,0.05
2022-10-18T10:32:46.383Z,0.10
2022-10-18T10:35:34.024Z,0.03
2022-10-18T10:38:25.324Z,0.00
2022-10-18T10:43:42.250Z,0.00
2022-10-18T10:46:13.507Z,0.00
2022-10-18T10:48:48.611Z,0.00
2022-10-18T10:51:20.667Z,0.00
2022-10-18T10:53:52.945Z,0.10
2022-10-18T10:56:29.238Z,0.00
2022-10-18T10:59:01.843Z,0.00
2022-10-18T11:01:33.480Z,0.00
2022-10-18T11:04:04.577Z,0.00
2022-10-18T11:06:53.665Z,0.00
2022-10-18T11:09:32.536Z,0.00
2022-10-18T11:12:18.153Z,0.00
2022-10-18T11:14:54.305Z,0.00
2022-10-18T11:17:33.263Z,0.00
2022-10-18T11:20:12.009Z,0.00
2022-10-18T11:22:45.476Z,0.00
2022-10-18T11:25:18.287Z,0.00
2022-10-18T11:27:56.629Z,0.10
2022-10-18T11:30:39.169Z,0.00
2022-10-18T11:33:28.699Z,0.00
2022-10-18T11:36:12.098Z,0.00
2022-10-18T11:38:50.240Z,0.00
2022-10-18T11:41:32.530Z,0.30
2022-10-18T11:44:04.790Z,0.00
2022-10-18T11:46:55.585Z,0.00
2022-10-18T11:49:53.267Z,0.00
2022-10-18T11:52:30.069Z,0.00
2022-10-18T11:55:12.289Z,0.00
2022-10-18T11:57:56.287Z,0.00
2022-10-18T12:00:39.559Z,0.00
2022-10-18T12:03:35.212Z,0.10
2022-10-18T12:06:07.968Z,0.00
2022-10-18T12:08:41.512Z,0.00
2022-10-18T12:11:16.039Z,0.00
2022-10-18T12:13:50.151Z,0.00
2022-10-18T12:16:45.450Z,0.00
2022-10-18T12:19:23.486Z,0.00
2022-10-18T12:21:58.348Z,0.00
2022-10-18T12:24:30.128Z,0.00
2022-10-18T12:27:02.861Z,0.00
2022-10-18T12:29:36.889Z,0.00
2022-10-18T12:32:10.780Z,0.00
2022-10-18T12:34:45.630Z,0.00
2022-10-18T12:37:48.902Z,0.00
2022-10-18T12:40:24.869Z,0.00
2022-10-18T12:42:55.055Z,0.00
2022-10-18T12:45:30.563Z,0.00
2022-10-18T12:48:03.984Z,0.00
2022-10-18T12:50:36.294Z,0.00
2022-10-18T12:53:16.491Z,0.00
2022-10-18T12:55:46.865Z,0.00
2022-10-18T12:58:27.809Z,0.00
2022-10-18T13:01:02.623Z,0.00
2022-10-18T13:03:41.467Z,0.00
2022-10-18T13:06:10.271Z,0.00
2022-10-18T13:08:42.290Z,0.00
2022-10-18T13:11:31.349Z,0.00
2022-10-18T13:14:18.624Z,0.00
2022-10-18T13:16:50.731Z,0.00
2022-10-18T13:19:27.080Z,0.00
2022-10-18T13:22:12.667Z,0.00
2022-10-18T13:24:46.887Z,0.00
2022-10-18T13:27:42.208Z,0.00
2022-10-18T13:30:34.653Z,0.00
2022-10-18T13:33:22.424Z,0.00
2022-10-18T13:35:58.268Z,0.00
2022-10-18T13:39:03.919Z,0.00
2022-10-18T13:41:35.555Z,0.00
2022-10-18T13:44:30.708Z,0.00
2022-10-18T13:47:35.558Z,0.00
2022-10-18T13:50:28.446Z,0.00
2022-10-18T13:53:36.112Z,0.00
2022-10-18T13:56:41.327Z,0.00
2022-10-18T13:59:29.171Z,0.00
2022-10-18T14:02:30.798Z,0.00
2022-10-18T14:05:25.746Z,0.00
2022-10-18T14:08:01.307Z,0.00
2022-10-18T14:11:01.277Z,0.17
2022-10-18T14:13:38.205Z,0.00
2022-10-18T14:16:12.265Z,0.00
2022-10-18T14:18:44.240Z,0.00
2022-10-18T14:21:21.991Z,0.00
2022-10-18T14:23:52.417Z,0.00
2022-10-18T14:26:23.093Z,0.00
2022-10-18T14:29:06.192Z,0.00
2022-10-18T14:31:36.098Z,0.00
2022-10-18T14:34:05.283Z,0.00
2022-10-18T14:36:39.201Z,0.00
2022-10-18T14:39:16.898Z,0.00
2022-10-18T14:41:52.368Z,0.00
2022-10-18T14:44:23.563Z,0.00
2022-10-18T14:46:53.979Z,0.00
2022-10-18T14:49:22.808Z,0.00
2022-10-18T14:51:53.382Z,0.00
2022-10-18T14:54:29.048Z,0.00
2022-10-18T14:57:02.876Z,0.00
2022-10-18T15:02:05.222Z,0.00
2022-10-18T15:04:34.105Z,0.00
2022-10-18T15:07:04.775Z,0.00
2022-10-18T15:09:35.819Z,0.00
2022-10-18T15:14:37.110Z,0.00
2022-10-18T15:17:17.155Z,0.00
2022-10-18T15:19:59.326Z,0.00
2022-10-18T15:22:32.671Z,0.00
2022-10-18T15:25:13.021Z,0.00
2022-10-18T15:27:46.835Z,0.08
2022-10-18T15:30:24.435Z,0.10
2022-10-18T15:32:55.039Z,0.00
2022-10-18T15:35:28.709Z,0.00
2022-10-18T15:37:58.930Z,0.00
2022-10-18T15:40:39.261Z,0.00
2022-10-18T15:43:36.520Z,0.00
2022-10-18T15:46:07.420Z,0.00
2022-10-18T15:51:07.622Z,0.17
2022-10-18T15:53:44.019Z,0.00
2022-10-18T15:56:28.993Z,0.00
2022-10-18T15:59:01.022Z,0.22
2022-10-18T16:01:36.102Z,0.00
2022-10-18T16:04:09.737Z,0.10
2022-10-18T16:06:38.919Z,0.30
2022-10-18T16:09:07.657Z,0.20
2022-10-18T16:11:36.318Z,0.30
2022-10-18T16:14:06.448Z,0.10
2022-10-18T16:16:35.312Z,0.07
2022-10-18T16:19:04.888Z,0.00
2022-10-18T16:21:36.124Z,0.00
2022-10-18T16:24:06.077Z,0.00
2022-10-18T16:26:35.495Z,0.00
2022-10-18T16:29:06.778Z,0.00
2022-10-18T16:31:36.341Z,0.00
2022-10-18T16:34:04.935Z,0.00
2022-10-18T16:36:35.330Z,0.10
2022-10-18T16:39:08.303Z,0.00
2022-10-18T16:41:37.062Z,0.00
2022-10-18T16:44:07.327Z,0.00
2022-10-18T16:46:36.925Z,0.00
2022-10-18T16:49:06.512Z,0.10
2022-10-18T16:51:35.513Z,0.10
2022-10-18T16:54:04.196Z,0.00
2022-10-18T16:56:33.933Z,0.00
2022-10-18T16:59:02.665Z,0.00
2022-10-18T17:01:32.854Z,0.00
2022-10-18T17:04:01.586Z,0.00
2022-10-18T17:06:31.973Z,0.00
2022-10-18T17:09:01.268Z,0.00
2022-10-18T17:11:30.263Z,0.00
2022-10-18T17:13:59.012Z,0.00
2022-10-18T17:19:07.373Z,0.00
2022-10-18T17:21:36.499Z,0.00
2022-10-18T17:24:06.431Z,0.00
2022-10-18T17:26:35.505Z,0.00
2022-10-18T17:29:07.167Z,0.00
2022-10-18T17:31:35.996Z,0.00
2022-10-18T17:34:06.250Z,0.10
2022-10-18T17:36:36.020Z,0.00
2022-10-18T17:39:05.771Z,0.00
2022-10-18T17:41:34.409Z,0.00
2022-10-18T17:44:04.473Z,0.00
2022-10-18T17:46:33.209Z,0.00
2022-10-18T17:49:01.891Z,0.00
2022-10-18T17:51:31.898Z,0.00
2022-10-18T17:54:00.541Z,0.00
2022-10-18T17:56:33.510Z,0.00
2022-10-18T17:59:02.326Z,0.00
2022-10-18T18:01:30.931Z,0.00
2022-10-18T18:04:01.551Z,0.00
2022-10-18T18:06:34.262Z,0.00
2022-10-18T18:09:07.119Z,0.00
2022-10-18T18:11:36.605Z,0.00
2022-10-18T18:14:11.100Z,0.00
2022-10-18T18:16:42.060Z,0.00
2022-10-18T18:19:11.471Z,0.28
2022-10-18T18:21:42.543Z,0.00
2022-10-18T18:26:40.781Z,0.00
2022-10-18T18:29:09.600Z,0.30
2022-10-18T18:31:40.253Z,0.00
2022-10-18T18:34:14.312Z,0.00
2022-10-18T18:36:45.070Z,0.00
2022-10-18T18:39:21.269Z,0.00
2022-10-18T18:41:51.503Z,0.00
2022-10-18T18:44:21.290Z,0.00
2022-10-18T18:46:50.395Z,0.00
2022-10-18T18:49:19.008Z,0.00
2022-10-18T18:51:49.112Z,0.00
2022-10-18T18:54:17.906Z,0.00
2022-10-18T18:56:47.080Z,0.00
2022-10-18T18:59:16.285Z,0.00
2022-10-18T19:01:45.746Z,0.00
2022-10-18T19:04:14.627Z,0.00
2022-10-18T19:06:45.123Z,0.00
2022-10-18T19:09:20.772Z,0.00
2022-10-18T19:11:50.795Z,0.00
2022-10-18T19:14:19.469Z,0.00
2022-10-18T19:16:48.769Z,0.00
2022-10-18T19:19:19.363Z,0.00
2022-10-18T19:21:50.151Z,0.00
2022-10-18T19:24:21.191Z,0.00
2022-10-18T19:29:21.839Z,0.00
2022-10-18T19:31:51.930Z,0.00
2022-10-18T19:34:22.549Z,0.00
2022-10-18T19:36:51.672Z,0.00
2022-10-18T19:39:23.552Z,0.10
2022-10-18T19:41:55.358Z,0.00
2022-10-18T19:44:27.628Z,0.00
2022-10-18T19:46:56.749Z,0.00
2022-10-18T19:49:25.309Z,0.00
2022-10-18T19:51:54.228Z,0.00
2022-10-18T19:54:24.460Z,0.00
2022-10-18T19:56:53.018Z,0.10
2022-10-18T19:59:22.828Z,0.00
2022-10-18T20:01:51.803Z,0.00
2022-10-18T20:04:20.341Z,0.00
2022-10-18T20:06:49.102Z,0.00
2022-10-18T20:09:20.428Z,0.00
2022-10-18T20:11:51.053Z,0.00
2022-10-18T20:14:20.324Z,0.00
2022-10-18T20:16:48.838Z,0.00
2022-10-18T20:19:17.566Z,0.00
2022-10-18T20:21:46.119Z,0.00
2022-10-18T20:24:14.684Z,0.00
2022-10-18T20:26:43.918Z,0.00
2022-10-18T20:29:14.237Z,0.00
2022-10-18T20:31:42.882Z,0.00
2022-10-18T20:34:13.411Z,0.00
2022-10-18T20:36:43.106Z,0.00
2022-10-18T20:39:11.816Z,0.00
2022-10-18T20:41:41.915Z,0.00
2022-10-18T20:44:16.943Z,0.00
2022-10-18T20:46:45.665Z,0.00
2022-10-18T20:49:16.519Z,0.00
2022-10-18T20:51:45.560Z,0.00
2022-10-18T20:54:14.296Z,0.00
2022-10-18T20:56:43.219Z,0.00
2022-10-18T20:59:12.397Z,0.00
2022-10-18T21:01:42.547Z,0.00
2022-10-18T21:04:12.295Z,0.00
2022-10-18T21:06:42.711Z,0.00
2022-10-18T21:09:14.421Z,0.00
2022-10-18T21:11:45.063Z,0.00
2022-10-18T21:14:15.614Z,0.00
2022-10-18T21:16:46.567Z,0.00
2022-10-18T21:19:16.683Z,0.00
2022-10-18T21:21:47.548Z,0.00
2022-10-18T21:24:16.192Z,0.00
2022-10-18T21:26:45.347Z,0.00
2022-10-18T21:29:18.098Z,0.00
2022-10-18T21:31:53.719Z,0.00
2022-10-18T21:34:22.750Z,0.00
2022-10-18T21:36:51.260Z,0.00
2022-10-18T21:39:21.984Z,0.00
2022-10-18T21:41:51.380Z,0.00
2022-10-18T21:44:20.325Z,0.00
2022-10-18T21:46:50.988Z,0.00
2022-10-18T21:49:19.831Z,0.00
2022-10-18T21:51:48.386Z,0.00
2022-10-18T21:54:17.783Z,0.00
2022-10-18T21:56:46.791Z,0.00
2022-10-18T21:59:15.827Z,0.00
2022-10-18T22:01:45.879Z,0.00
2022-10-18T22:04:22.042Z,0.00
2022-10-18T22:06:51.445Z,0.00
2022-10-18T22:09:21.318Z,0.00
2022-10-18T22:11:51.999Z,0.00
2022-10-18T22:14:21.300Z,0.00
2022-10-18T22:16:50.056Z,0.00
2022-10-18T22:19:20.685Z,0.00
2022-10-18T22:21:49.362Z,0.00
2022-10-18T22:24:18.142Z,0.00
2022-10-18T22:26:47.627Z,0.10
2022-10-18T22:29:18.234Z,0.00
2022-10-18T22:31:49.228Z,0.00
2022-10-18T22:36:48.511Z,0.00
2022-10-18T22:39:17.696Z,0.00
2022-10-18T22:41:46.701Z,0.00
2022-10-18T22:44:16.369Z,0.00
2022-10-18T22:46:44.993Z,0.00
2022-10-18T22:49:14.121Z,0.10
2022-10-18T22:51:42.893Z,0.00
2022-10-18T22:54:13.041Z,0.00
2022-10-18T22:56:41.749Z,0.00
2022-10-18T22:59:10.444Z,0.00
2022-10-18T23:01:39.446Z,0.00
2022-10-18T23:04:08.110Z,0.00
2022-10-18T23:06:38.078Z,0.20
2022-10-18T23:09:09.855Z,0.00
2022-10-18T23:11:40.028Z,0.10
2022-10-18T23:14:08.872Z,0.13
2022-10-18T23:16:37.609Z,0.15
2022-10-18T23:19:06.627Z,0.25
2022-10-18T23:21:35.680Z,0.10
2022-10-18T23:24:04.689Z,0.10
2022-10-18T23:26:33.573Z,0.10
2022-10-18T23:29:03.746Z,0.10
2022-10-18T23:31:34.081Z,0.20
2022-10-18T23:34:05.268Z,0.22
2022-10-18T23:36:34.870Z,0.10
2022-10-18T23:39:04.067Z,0.10
2022-10-18T23:41:32.826Z,0.20
2022-10-18T23:44:02.944Z,0.10
2022-10-18T23:46:31.574Z,0.30
2022-10-18T23:49:00.205Z,0.20
2022-10-18T23:51:29.028Z,0.17
2022-10-18T23:53:57.654Z,0.20
2022-10-18T23:56:26.291Z,0.13
2022-10-18T23:58:54.901Z,0.30
